sensor_id;sensor_type;location;lat;lon;timestamp;temperature;humidity
1538;DHT22;12022;52.266;10.522;2023-03-21T00:01:33;10.50;99.90
1538;DHT22;12022;52.266;10.522;2023-03-21T00:04:01;10.20;99.90
1538;DHT22;12022;52.266;10.522;2023-03-21T00:06:28;10.20;99.90
1538;DHT22;12022;52.266;10.522;2023-03-21T00:08:54;10.10;99.90
1538;DHT22;12022;52.266;10.522;2023-03-21T00:11:21;10.20;99.90
1538;DHT22;12022;52.266;10.522;2023-03-21T00:13:48;10.50;99.90
1538;DHT22;12022;52.266;10.522;2023-03-21T00:16:17;10.20;99.90
1538;DHT22;12022;52.266;10.522;2023-03-21T00:18:56;10.50;99.90
1538;DHT22;12022;52.266;10.522;2023-03-21T00:21:23;10.30;99.90
1538;DHT22;12022;52.266;10.522;2023-03-21T00:24:13;10.30;99.90
1538;DHT22;12022;52.266;10.522;2023-03-21T00:26:40;10.30;99.90
1538;DHT22;12022;52.266;10.522;2023-03-21T00:29:07;10.30;99.90
1538;DHT22;12022;52.266;10.522;2023-03-21T00:31:34;10.40;99.90
1538;DHT22;12022;52.266;10.522;2023-03-21T00:34:01;10.30;99.90
1538;DHT22;12022;52.266;10.522;2023-03-21T00:36:28;10.40;99.90
1538;DHT22;12022;52.266;10.522;2023-03-21T00:38:55;10.20;99.90
1538;DHT22;12022;52.266;10.522;2023-03-21T00:41:22;10.20;99.90
1538;DHT22;12022;52.266;10.522;2023-03-21T00:44:07;10.20;99.90
1538;DHT22;12022;52.266;10.522;2023-03-21T00:46:34;10.10;99.90
1538;DHT22;12022;52.266;10.522;2023-03-21T00:49:12;10.10;99.90
1538;DHT22;12022;52.266;10.522;2023-03-21T00:51:41;10.10;99.90
1538;DHT22;12022;52.266;10.522;2023-03-21T00:54:11;10.00;99.90
1538;DHT22;12022;52.266;10.522;2023-03-21T00:56:38;10.00;99.90
1538;DHT22;12022;52.266;10.522;2023-03-21T00:59:05;10.10;99.90
1538;DHT22;12022;52.266;10.522;2023-03-21T01:01:32;10.20;99.90
1538;DHT22;12022;52.266;10.522;2023-03-21T01:04:01;10.10;99.90
1538;DHT22;12022;52.266;10.522;2023-03-21T01:06:34;10.20;99.90
1538;DHT22;12022;52.266;10.522;2023-03-21T01:09:15;10.10;99.90
1538;DHT22;12022;52.266;10.522;2023-03-21T01:11:43;10.10;99.90
1538;DHT22;12022;52.266;10.522;2023-03-21T01:14:13;10.20;99.90
1538;DHT22;12022;52.266;10.522;2023-03-21T01:16:51;10.20;99.90
1538;DHT22;12022;52.266;10.522;2023-03-21T01:19:20;10.20;99.90
1538;DHT22;12022;52.266;10.522;2023-03-21T01:21:56;10.20;99.90
1538;DHT22;12022;52.266;10.522;2023-03-21T01:24:23;10.20;99.90
1538;DHT22;12022;52.266;10.522;2023-03-21T01:26:50;10.20;99.90
1538;DHT22;12022;52.266;10.522;2023-03-21T01:29:16;10.30;99.90
1538;DHT22;12022;52.266;10.522;2023-03-21T01:31:43;10.20;99.90
1538;DHT22;12022;52.266;10.522;2023-03-21T01:34:10;10.20;99.90
1538;DHT22;12022;52.266;10.522;2023-03-21T01:36:37;10.10;99.90
1538;DHT22;12022;52.266;10.522;2023-03-21T01:39:04;10.10;99.90
1538;DHT22;12022;52.266;10.522;2023-03-21T01:41:40;10.10;99.90
1538;DHT22;12022;52.266;10.522;2023-03-21T01:44:15;10.10;99.90
1538;DHT22;12022;52.266;10.522;2023-03-21T01:46:45;10.10;99.90
1538;DHT22;12022;52.266;10.522;2023-03-21T01:49:39;10.20;99.90
1538;DHT22;12022;52.266;10.522;2023-03-21T01:52:13;10.10;99.90
1538;DHT22;12022;52.266;10.522;2023-03-21T01:54:56;10.00;99.90
1538;DHT22;12022;52.266;10.522;2023-03-21T01:57:27;10.00;99.90
1538;DHT22;12022;52.266;10.522;2023-03-21T02:00:08;10.10;99.90
1538;DHT22;12022;52.266;10.522;2023-03-21T02:02:41;10.00;99.90
1538;DHT22;12022;52.266;10.522;2023-03-21T02:08:14;10.00;99.90
1538;DHT22;12022;52.266;10.522;2023-03-21T02:10:43;10.00;99.90
1538;DHT22;12022;52.266;10.522;2023-03-21T02:13:11;10.10;99.90
1538;DHT22;12022;52.266;10.522;2023-03-21T02:15:40;10.10;99.90
1538;DHT22;12022;52.266;10.522;2023-03-21T02:29:29;10.00;99.90
1538;DHT22;12022;52.266;10.522;2023-03-21T02:38:20;10.10;99.90
1538;DHT22;12022;52.266;10.522;2023-03-21T02:44:06;10.10;99.90
1538;DHT22;12022;52.266;10.522;2023-03-21T02:46:48;10.10;99.90
1538;DHT22;12022;52.266;10.522;2023-03-21T02:52:05;10.10;99.90
1538;DHT22;12022;52.266;10.522;2023-03-21T02:54:45;10.00;99.90
1538;DHT22;12022;52.266;10.522;2023-03-21T02:57:17;10.20;99.90
1538;DHT22;12022;52.266;10.522;2023-03-21T02:59:47;10.10;99.90
1538;DHT22;12022;52.266;10.522;2023-03-21T03:02:26;10.10;99.90
1538;DHT22;12022;52.266;10.522;2023-03-21T03:04:53;10.10;99.90
1538;DHT22;12022;52.266;10.522;2023-03-21T03:18:40;10.10;99.90
1538;DHT22;12022;52.266;10.522;2023-03-21T03:24:08;10.10;99.90
1538;DHT22;12022;52.266;10.522;2023-03-21T03:29:16;10.20;99.90
1538;DHT22;12022;52.266;10.522;2023-03-21T03:32:12;10.30;99.90
1538;DHT22;12022;52.266;10.522;2023-03-21T03:34:45;10.30;99.90
1538;DHT22;12022;52.266;10.522;2023-03-21T03:37:20;10.30;99.90
1538;DHT22;12022;52.266;10.522;2023-03-21T03:40:12;10.30;99.90
1538;DHT22;12022;52.266;10.522;2023-03-21T03:42:47;10.30;99.90
1538;DHT22;12022;52.266;10.522;2023-03-21T03:45:15;10.30;99.90
1538;DHT22;12022;52.266;10.522;2023-03-21T03:48:03;10.30;99.90
1538;DHT22;12022;52.266;10.522;2023-03-21T03:50:46;10.30;99.90
1538;DHT22;12022;52.266;10.522;2023-03-21T03:56:00;10.30;99.90
1538;DHT22;12022;52.266;10.522;2023-03-21T03:58:28;10.30;99.90
1538;DHT22;12022;52.266;10.522;2023-03-21T04:01:10;10.30;99.90
1538;DHT22;12022;52.266;10.522;2023-03-21T04:03:39;10.30;99.90
1538;DHT22;12022;52.266;10.522;2023-03-21T04:06:16;10.30;99.90
1538;DHT22;12022;52.266;10.522;2023-03-21T04:08:43;10.30;99.90
1538;DHT22;12022;52.266;10.522;2023-03-21T04:11:13;10.30;99.90
1538;DHT22;12022;52.266;10.522;2023-03-21T04:13:42;10.30;99.90
1538;DHT22;12022;52.266;10.522;2023-03-21T04:16:09;10.30;99.90
1538;DHT22;12022;52.266;10.522;2023-03-21T04:18:37;10.30;99.90
1538;DHT22;12022;52.266;10.522;2023-03-21T04:21:09;10.30;99.90
1538;DHT22;12022;52.266;10.522;2023-03-21T04:23:39;10.40;99.90
1538;DHT22;12022;52.266;10.522;2023-03-21T04:26:07;10.30;99.90
1538;DHT22;12022;52.266;10.522;2023-03-21T04:28:34;10.30;99.90
1538;DHT22;12022;52.266;10.522;2023-03-21T04:31:05;10.30;99.90
1538;DHT22;12022;52.266;10.522;2023-03-21T04:33:48;10.30;99.90
1538;DHT22;12022;52.266;10.522;2023-03-21T04:36:15;10.30;99.90
1538;DHT22;12022;52.266;10.522;2023-03-21T04:38:51;10.30;99.90
1538;DHT22;12022;52.266;10.522;2023-03-21T04:41:18;10.30;99.90
1538;DHT22;12022;52.266;10.522;2023-03-21T04:43:45;10.30;99.90
1538;DHT22;12022;52.266;10.522;2023-03-21T04:46:13;10.50;99.90
1538;DHT22;12022;52.266;10.522;2023-03-21T04:48:40;10.30;99.90
1538;DHT22;12022;52.266;10.522;2023-03-21T04:51:06;10.30;99.90
1538;DHT22;12022;52.266;10.522;2023-03-21T04:53:33;10.40;99.90
1538;DHT22;12022;52.266;10.522;2023-03-21T04:56:00;10.30;99.90
1538;DHT22;12022;52.266;10.522;2023-03-21T04:58:27;10.30;99.90
1538;DHT22;12022;52.266;10.522;2023-03-21T05:00:55;10.30;99.90
1538;DHT22;12022;52.266;10.522;2023-03-21T05:03:23;10.30;99.90
1538;DHT22;12022;52.266;10.522;2023-03-21T05:05:50;10.30;99.90
1538;DHT22;12022;52.266;10.522;2023-03-21T05:08:17;10.50;99.90
1538;DHT22;12022;52.266;10.522;2023-03-21T05:10:44;10.30;99.90
1538;DHT22;12022;52.266;10.522;2023-03-21T05:13:11;10.50;99.90
1538;DHT22;12022;52.266;10.522;2023-03-21T05:15:38;10.30;99.90
1538;DHT22;12022;52.266;10.522;2023-03-21T05:18:05;10.10;99.90
1538;DHT22;12022;52.266;10.522;2023-03-21T05:20:38;10.30;99.90
1538;DHT22;12022;52.266;10.522;2023-03-21T05:23:09;10.40;99.90
1538;DHT22;12022;52.266;10.522;2023-03-21T05:25:38;10.60;99.90
1538;DHT22;12022;52.266;10.522;2023-03-21T05:28:06;10.30;99.90
1538;DHT22;12022;52.266;10.522;2023-03-21T05:30:33;10.30;99.90
1538;DHT22;12022;52.266;10.522;2023-03-21T05:33:00;10.30;99.90
1538;DHT22;12022;52.266;10.522;2023-03-21T05:35:27;10.30;99.90
1538;DHT22;12022;52.266;10.522;2023-03-21T05:37:54;10.50;99.90
1538;DHT22;12022;52.266;10.522;2023-03-21T05:40:21;10.30;99.90
1538;DHT22;12022;52.266;10.522;2023-03-21T05:42:48;10.30;99.90
1538;DHT22;12022;52.266;10.522;2023-03-21T05:45:15;10.50;99.90
1538;DHT22;12022;52.266;10.522;2023-03-21T05:47:42;10.30;99.90
1538;DHT22;12022;52.266;10.522;2023-03-21T05:50:11;10.40;99.90
1538;DHT22;12022;52.266;10.522;2023-03-21T05:52:39;10.50;99.90
1538;DHT22;12022;52.266;10.522;2023-03-21T05:55:06;10.40;99.90
1538;DHT22;12022;52.266;10.522;2023-03-21T05:57:34;10.40;99.90
1538;DHT22;12022;52.266;10.522;2023-03-21T06:00:06;10.40;99.90
1538;DHT22;12022;52.266;10.522;2023-03-21T06:02:34;10.40;99.90
1538;DHT22;12022;52.266;10.522;2023-03-21T06:05:01;10.40;99.90
1538;DHT22;12022;52.266;10.522;2023-03-21T06:07:28;10.60;99.90
1538;DHT22;12022;52.266;10.522;2023-03-21T06:09:55;10.50;99.90
1538;DHT22;12022;52.266;10.522;2023-03-21T06:12:22;10.70;99.90
1538;DHT22;12022;52.266;10.522;2023-03-21T06:14:49;10.70;99.90
1538;DHT22;12022;52.266;10.522;2023-03-21T06:17:16;10.60;99.90
1538;DHT22;12022;52.266;10.522;2023-03-21T06:19:43;10.60;99.90
1538;DHT22;12022;52.266;10.522;2023-03-21T06:22:13;10.60;99.90
1538;DHT22;12022;52.266;10.522;2023-03-21T06:24:40;10.90;99.90
1538;DHT22;12022;52.266;10.522;2023-03-21T06:27:07;10.70;99.90
1538;DHT22;12022;52.266;10.522;2023-03-21T06:29:34;10.70;99.90
1538;DHT22;12022;52.266;10.522;2023-03-21T06:32:01;10.80;99.90
1538;DHT22;12022;52.266;10.522;2023-03-21T06:34:28;10.80;99.90
1538;DHT22;12022;52.266;10.522;2023-03-21T06:36:55;10.90;99.90
1538;DHT22;12022;52.266;10.522;2023-03-21T06:39:22;10.90;99.90
1538;DHT22;12022;52.266;10.522;2023-03-21T06:41:49;11.00;99.90
1538;DHT22;12022;52.266;10.522;2023-03-21T06:44:16;11.20;99.90
1538;DHT22;12022;52.266;10.522;2023-03-21T06:46:43;11.30;99.90
1538;DHT22;12022;52.266;10.522;2023-03-21T06:49:10;11.30;99.90
1538;DHT22;12022;52.266;10.522;2023-03-21T06:51:37;11.20;99.90
1538;DHT22;12022;52.266;10.522;2023-03-21T06:54:04;11.20;99.90
1538;DHT22;12022;52.266;10.522;2023-03-21T06:56:31;11.20;99.90
1538;DHT22;12022;52.266;10.522;2023-03-21T06:58:58;11.20;99.90
1538;DHT22;12022;52.266;10.522;2023-03-21T07:01:25;11.30;99.90
1538;DHT22;12022;52.266;10.522;2023-03-21T07:03:53;11.40;99.90
1538;DHT22;12022;52.266;10.522;2023-03-21T07:06:24;11.40;99.90
1538;DHT22;12022;52.266;10.522;2023-03-21T07:08:54;11.60;99.90
1538;DHT22;12022;52.266;10.522;2023-03-21T07:11:23;11.50;99.90
1538;DHT22;12022;52.266;10.522;2023-03-21T07:13:50;11.50;99.90
1538;DHT22;12022;52.266;10.522;2023-03-21T07:16:18;11.70;99.90
1538;DHT22;12022;52.266;10.522;2023-03-21T07:18:47;11.70;99.90
1538;DHT22;12022;52.266;10.522;2023-03-21T07:21:14;11.70;99.90
1538;DHT22;12022;52.266;10.522;2023-03-21T07:23:42;11.80;99.90
1538;DHT22;12022;52.266;10.522;2023-03-21T07:26:09;12.00;99.90
1538;DHT22;12022;52.266;10.522;2023-03-21T07:28:36;11.90;99.90
1538;DHT22;12022;52.266;10.522;2023-03-21T07:31:05;12.00;99.90
1538;DHT22;12022;52.266;10.522;2023-03-21T07:33:32;12.10;99.90
1538;DHT22;12022;52.266;10.522;2023-03-21T07:36:01;12.20;99.90
1538;DHT22;12022;52.266;10.522;2023-03-21T07:38:27;12.50;99.90
1538;DHT22;12022;52.266;10.522;2023-03-21T07:40:58;12.40;99.90
1538;DHT22;12022;52.266;10.522;2023-03-21T07:43:27;12.40;99.90
1538;DHT22;12022;52.266;10.522;2023-03-21T07:45:57;12.50;99.90
1538;DHT22;12022;52.266;10.522;2023-03-21T07:48:28;12.60;99.90
1538;DHT22;12022;52.266;10.522;2023-03-21T07:50:55;12.50;99.90
1538;DHT22;12022;52.266;10.522;2023-03-21T07:53:23;12.50;99.90
1538;DHT22;12022;52.266;10.522;2023-03-21T07:55:52;12.50;99.90
1538;DHT22;12022;52.266;10.522;2023-03-21T07:58:22;12.60;99.90
1538;DHT22;12022;52.266;10.522;2023-03-21T08:00:50;12.60;99.90
1538;DHT22;12022;52.266;10.522;2023-03-21T08:03:18;12.70;99.90
1538;DHT22;12022;52.266;10.522;2023-03-21T08:05:45;12.70;99.90
1538;DHT22;12022;52.266;10.522;2023-03-21T08:08:12;12.80;99.90
1538;DHT22;12022;52.266;10.522;2023-03-21T08:10:42;12.80;99.90
1538;DHT22;12022;52.266;10.522;2023-03-21T08:13:10;12.80;99.90
1538;DHT22;12022;52.266;10.522;2023-03-21T08:15:37;12.80;99.90
1538;DHT22;12022;52.266;10.522;2023-03-21T08:18:11;12.90;99.90
1538;DHT22;12022;52.266;10.522;2023-03-21T08:20:38;12.90;99.90
1538;DHT22;12022;52.266;10.522;2023-03-21T08:23:06;12.90;99.90
1538;DHT22;12022;52.266;10.522;2023-03-21T08:25:33;13.00;99.90
1538;DHT22;12022;52.266;10.522;2023-03-21T08:28:00;13.00;99.90
1538;DHT22;12022;52.266;10.522;2023-03-21T08:30:28;12.90;99.90
1538;DHT22;12022;52.266;10.522;2023-03-21T08:32:57;13.10;99.90
1538;DHT22;12022;52.266;10.522;2023-03-21T08:35:28;13.10;99.90
1538;DHT22;12022;52.266;10.522;2023-03-21T08:37:55;13.00;99.90
1538;DHT22;12022;52.266;10.522;2023-03-21T08:40:23;13.10;99.90
1538;DHT22;12022;52.266;10.522;2023-03-21T08:42:50;13.30;99.90
1538;DHT22;12022;52.266;10.522;2023-03-21T08:45:18;13.50;99.90
1538;DHT22;12022;52.266;10.522;2023-03-21T08:47:48;13.70;99.90
1538;DHT22;12022;52.266;10.522;2023-03-21T08:50:20;14.00;99.90
1538;DHT22;12022;52.266;10.522;2023-03-21T08:52:48;14.20;99.90
1538;DHT22;12022;52.266;10.522;2023-03-21T08:55:16;14.50;99.90
1538;DHT22;12022;52.266;10.522;2023-03-21T08:57:44;14.50;99.90
1538;DHT22;12022;52.266;10.522;2023-03-21T09:00:17;14.70;99.90
1538;DHT22;12022;52.266;10.522;2023-03-21T09:02:49;14.90;99.90
1538;DHT22;12022;52.266;10.522;2023-03-21T09:05:18;15.00;99.90
1538;DHT22;12022;52.266;10.522;2023-03-21T09:07:47;15.00;99.90
1538;DHT22;12022;52.266;10.522;2023-03-21T09:10:18;15.10;99.90
1538;DHT22;12022;52.266;10.522;2023-03-21T09:12:49;15.20;99.90
1538;DHT22;12022;52.266;10.522;2023-03-21T09:15:20;15.30;99.90
1538;DHT22;12022;52.266;10.522;2023-03-21T09:17:51;15.30;99.90
1538;DHT22;12022;52.266;10.522;2023-03-21T09:20:22;15.30;99.90
1538;DHT22;12022;52.266;10.522;2023-03-21T09:22:52;15.40;99.90
1538;DHT22;12022;52.266;10.522;2023-03-21T09:25:20;15.40;99.90
1538;DHT22;12022;52.266;10.522;2023-03-21T09:27:50;15.50;99.90
1538;DHT22;12022;52.266;10.522;2023-03-21T09:30:19;15.60;99.90
1538;DHT22;12022;52.266;10.522;2023-03-21T09:32:52;15.60;99.90
1538;DHT22;12022;52.266;10.522;2023-03-21T09:35:22;15.60;99.90
1538;DHT22;12022;52.266;10.522;2023-03-21T09:37:54;15.60;99.90
1538;DHT22;12022;52.266;10.522;2023-03-21T09:43:13;15.70;99.90
1538;DHT22;12022;52.266;10.522;2023-03-21T09:51:32;16.10;99.90
1538;DHT22;12022;52.266;10.522;2023-03-21T09:54:06;16.30;99.90
1538;DHT22;12022;52.266;10.522;2023-03-21T09:56:35;16.20;99.90
1538;DHT22;12022;52.266;10.522;2023-03-21T09:59:04;16.10;99.90
1538;DHT22;12022;52.266;10.522;2023-03-21T10:01:36;15.90;99.90
1538;DHT22;12022;52.266;10.522;2023-03-21T10:04:21;15.90;99.90
1538;DHT22;12022;52.266;10.522;2023-03-21T10:06:59;15.90;99.90
1538;DHT22;12022;52.266;10.522;2023-03-21T10:09:30;15.90;99.90
1538;DHT22;12022;52.266;10.522;2023-03-21T10:12:27;16.00;99.90
1538;DHT22;12022;52.266;10.522;2023-03-21T10:14:59;16.10;99.90
1538;DHT22;12022;52.266;10.522;2023-03-21T10:17:34;16.00;99.90
1538;DHT22;12022;52.266;10.522;2023-03-21T10:20:24;16.10;99.90
1538;DHT22;12022;52.266;10.522;2023-03-21T10:22:56;16.20;99.90
1538;DHT22;12022;52.266;10.522;2023-03-21T10:25:39;16.20;99.90
1538;DHT22;12022;52.266;10.522;2023-03-21T10:28:12;16.20;99.90
1538;DHT22;12022;52.266;10.522;2023-03-21T10:30:45;16.20;99.90
1538;DHT22;12022;52.266;10.522;2023-03-21T10:33:16;16.20;99.90
1538;DHT22;12022;52.266;10.522;2023-03-21T10:35:50;16.20;99.90
1538;DHT22;12022;52.266;10.522;2023-03-21T10:38:20;16.10;99.90
1538;DHT22;12022;52.266;10.522;2023-03-21T10:40:49;16.00;99.90
1538;DHT22;12022;52.266;10.522;2023-03-21T10:46:18;15.90;99.90
1538;DHT22;12022;52.266;10.522;2023-03-21T10:48:51;16.10;99.90
1538;DHT22;12022;52.266;10.522;2023-03-21T10:51:21;16.20;99.90
1538;DHT22;12022;52.266;10.522;2023-03-21T10:53:52;16.40;99.90
1538;DHT22;12022;52.266;10.522;2023-03-21T10:56:26;16.60;99.90
1538;DHT22;12022;52.266;10.522;2023-03-21T10:58:56;16.80;99.90
1538;DHT22;12022;52.266;10.522;2023-03-21T11:01:33;17.00;99.90
1538;DHT22;12022;52.266;10.522;2023-03-21T11:04:19;17.30;99.90
1538;DHT22;12022;52.266;10.522;2023-03-21T11:07:03;17.50;99.90
1538;DHT22;12022;52.266;10.522;2023-03-21T11:09:52;17.80;99.90
1538;DHT22;12022;52.266;10.522;2023-03-21T11:12:34;18.00;99.90
1538;DHT22;12022;52.266;10.522;2023-03-21T11:17:37;18.40;99.90
1538;DHT22;12022;52.266;10.522;2023-03-21T11:20:06;18.40;99.90
1538;DHT22;12022;52.266;10.522;2023-03-21T11:22:39;18.40;99.90
1538;DHT22;12022;52.266;10.522;2023-03-21T11:25:09;18.40;99.90
1538;DHT22;12022;52.266;10.522;2023-03-21T11:27:47;18.40;99.90
1538;DHT22;12022;52.266;10.522;2023-03-21T11:30:25;18.40;99.90
1538;DHT22;12022;52.266;10.522;2023-03-21T11:32:55;18.10;99.90
1538;DHT22;12022;52.266;10.522;2023-03-21T11:35:27;17.90;99.90
1538;DHT22;12022;52.266;10.522;2023-03-21T11:37:58;17.70;99.90
1538;DHT22;12022;52.266;10.522;2023-03-21T11:40:30;17.70;99.90
1538;DHT22;12022;52.266;10.522;2023-03-21T11:43:27;17.70;99.90
1538;DHT22;12022;52.266;10.522;2023-03-21T11:48:38;17.50;99.90
1538;DHT22;12022;52.266;10.522;2023-03-21T11:51:16;17.20;99.90
1538;DHT22;12022;52.266;10.522;2023-03-21T11:56:36;16.80;99.90
1538;DHT22;12022;52.266;10.522;2023-03-21T12:05:15;16.70;99.90
1538;DHT22;12022;52.266;10.522;2023-03-21T12:08:02;16.80;99.90
1538;DHT22;12022;52.266;10.522;2023-03-21T12:10:38;16.80;99.90
1538;DHT22;12022;52.266;10.522;2023-03-21T12:15:59;16.90;99.90
1538;DHT22;12022;52.266;10.522;2023-03-21T12:21:33;16.50;99.90
1538;DHT22;12022;52.266;10.522;2023-03-21T12:24:16;16.40;99.90
1538;DHT22;12022;52.266;10.522;2023-03-21T12:33:07;16.10;99.90
1538;DHT22;12022;52.266;10.522;2023-03-21T12:36:01;16.10;99.90
1538;DHT22;12022;52.266;10.522;2023-03-21T12:39:03;16.00;99.90
1538;DHT22;12022;52.266;10.522;2023-03-21T12:44:36;16.10;99.90
1538;DHT22;12022;52.266;10.522;2023-03-21T12:47:20;16.20;99.90
1538;DHT22;12022;52.266;10.522;2023-03-21T12:50:04;16.40;99.90
1538;DHT22;12022;52.266;10.522;2023-03-21T12:52:39;16.30;99.90
1538;DHT22;12022;52.266;10.522;2023-03-21T12:55:19;16.30;99.90
1538;DHT22;12022;52.266;10.522;2023-03-21T12:58:04;16.20;99.90
1538;DHT22;12022;52.266;10.522;2023-03-21T13:00:35;16.20;99.90
1538;DHT22;12022;52.266;10.522;2023-03-21T13:03:18;16.30;99.90
1538;DHT22;12022;52.266;10.522;2023-03-21T13:06:06;16.10;99.90
1538;DHT22;12022;52.266;10.522;2023-03-21T13:14:31;15.90;99.90
1538;DHT22;12022;52.266;10.522;2023-03-21T13:17:12;15.70;99.90
1538;DHT22;12022;52.266;10.522;2023-03-21T13:20:00;15.60;99.90
1538;DHT22;12022;52.266;10.522;2023-03-21T13:22:32;15.40;99.90
1538;DHT22;12022;52.266;10.522;2023-03-21T13:27:34;15.10;99.90
1538;DHT22;12022;52.266;10.522;2023-03-21T13:32:42;15.00;99.90
1538;DHT22;12022;52.266;10.522;2023-03-21T13:35:31;15.00;99.90
1538;DHT22;12022;52.266;10.522;2023-03-21T13:38:05;15.00;99.90
1538;DHT22;12022;52.266;10.522;2023-03-21T13:40:48;14.70;99.90
1538;DHT22;12022;52.266;10.522;2023-03-21T13:51:38;14.30;99.90
1538;DHT22;12022;52.266;10.522;2023-03-21T13:59:12;14.40;99.90
1538;DHT22;12022;52.266;10.522;2023-03-21T14:04:28;14.40;99.90
1538;DHT22;12022;52.266;10.522;2023-03-21T14:07:20;14.40;99.90
1538;DHT22;12022;52.266;10.522;2023-03-21T14:09:51;14.60;99.90
1538;DHT22;12022;52.266;10.522;2023-03-21T14:12:24;14.40;99.90
1538;DHT22;12022;52.266;10.522;2023-03-21T14:15:00;14.30;99.90
1538;DHT22;12022;52.266;10.522;2023-03-21T14:17:55;14.30;99.90
1538;DHT22;12022;52.266;10.522;2023-03-21T14:20:25;14.30;99.90
1538;DHT22;12022;52.266;10.522;2023-03-21T14:22:53;14.30;99.90
1538;DHT22;12022;52.266;10.522;2023-03-21T14:25:32;14.20;99.90
1538;DHT22;12022;52.266;10.522;2023-03-21T14:28:16;14.20;99.90
1538;DHT22;12022;52.266;10.522;2023-03-21T14:30:51;14.30;99.90
1538;DHT22;12022;52.266;10.522;2023-03-21T14:33:31;14.20;99.90
1538;DHT22;12022;52.266;10.522;2023-03-21T14:36:14;14.20;99.90
1538;DHT22;12022;52.266;10.522;2023-03-21T14:38:43;14.30;99.90
1538;DHT22;12022;52.266;10.522;2023-03-21T14:41:29;14.30;99.90
1538;DHT22;12022;52.266;10.522;2023-03-21T14:44:02;14.30;99.90
1538;DHT22;12022;52.266;10.522;2023-03-21T14:46:29;14.30;99.90
1538;DHT22;12022;52.266;10.522;2023-03-21T14:49:09;14.30;99.90
1538;DHT22;12022;52.266;10.522;2023-03-21T14:51:42;14.30;99.90
1538;DHT22;12022;52.266;10.522;2023-03-21T14:54:20;14.30;99.90
1538;DHT22;12022;52.266;10.522;2023-03-21T14:56:55;14.30;99.90
1538;DHT22;12022;52.266;10.522;2023-03-21T14:59:25;14.20;99.90
1538;DHT22;12022;52.266;10.522;2023-03-21T15:01:53;14.20;99.90
1538;DHT22;12022;52.266;10.522;2023-03-21T15:04:21;14.20;99.90
1538;DHT22;12022;52.266;10.522;2023-03-21T15:07:03;14.20;99.90
1538;DHT22;12022;52.266;10.522;2023-03-21T15:09:58;14.20;99.90
1538;DHT22;12022;52.266;10.522;2023-03-21T15:21:07;13.70;99.90
1538;DHT22;12022;52.266;10.522;2023-03-21T15:27:39;13.70;99.90
1538;DHT22;12022;52.266;10.522;2023-03-21T15:30:50;13.50;99.90
1538;DHT22;12022;52.266;10.522;2023-03-21T15:33:23;13.70;99.90
1538;DHT22;12022;52.266;10.522;2023-03-21T15:35:58;13.70;99.90
1538;DHT22;12022;52.266;10.522;2023-03-21T15:38:36;13.60;99.90
1538;DHT22;12022;52.266;10.522;2023-03-21T15:43:41;13.70;99.90
1538;DHT22;12022;52.266;10.522;2023-03-21T15:49:33;13.60;99.90
1538;DHT22;12022;52.266;10.522;2023-03-21T15:52:31;13.60;99.90
1538;DHT22;12022;52.266;10.522;2023-03-21T15:55:17;13.50;99.90
1538;DHT22;12022;52.266;10.522;2023-03-21T15:57:48;13.50;99.90
1538;DHT22;12022;52.266;10.522;2023-03-21T16:00:38;13.50;99.90
1538;DHT22;12022;52.266;10.522;2023-03-21T16:03:24;13.50;99.90
1538;DHT22;12022;52.266;10.522;2023-03-21T16:09:18;13.40;99.90
1538;DHT22;12022;52.266;10.522;2023-03-21T16:11:58;13.40;99.90
1538;DHT22;12022;52.266;10.522;2023-03-21T16:14:26;13.50;99.90
1538;DHT22;12022;52.266;10.522;2023-03-21T16:16:55;13.40;99.90
1538;DHT22;12022;52.266;10.522;2023-03-21T16:19:31;13.50;99.90
1538;DHT22;12022;52.266;10.522;2023-03-21T16:21:58;13.40;99.90
1538;DHT22;12022;52.266;10.522;2023-03-21T16:24:26;13.40;99.90
1538;DHT22;12022;52.266;10.522;2023-03-21T16:26:53;13.40;99.90
1538;DHT22;12022;52.266;10.522;2023-03-21T16:29:20;13.30;99.90
1538;DHT22;12022;52.266;10.522;2023-03-21T16:31:48;13.20;99.90
1538;DHT22;12022;52.266;10.522;2023-03-21T16:34:15;13.20;99.90
1538;DHT22;12022;52.266;10.522;2023-03-21T16:36:42;13.10;99.90
1538;DHT22;12022;52.266;10.522;2023-03-21T16:39:21;13.00;99.90
1538;DHT22;12022;52.266;10.522;2023-03-21T16:41:48;13.10;99.90
1538;DHT22;12022;52.266;10.522;2023-03-21T16:44:18;13.10;99.90
1538;DHT22;12022;52.266;10.522;2023-03-21T16:47:20;13.10;99.90
1538;DHT22;12022;52.266;10.522;2023-03-21T16:49:49;13.00;99.90
1538;DHT22;12022;52.266;10.522;2023-03-21T16:52:19;13.00;99.90
1538;DHT22;12022;52.266;10.522;2023-03-21T16:54:46;12.90;99.90
1538;DHT22;12022;52.266;10.522;2023-03-21T16:57:23;12.90;99.90
1538;DHT22;12022;52.266;10.522;2023-03-21T16:59:54;12.80;99.90
1538;DHT22;12022;52.266;10.522;2023-03-21T17:02:23;12.70;99.90
1538;DHT22;12022;52.266;10.522;2023-03-21T17:04:52;12.70;99.90
1538;DHT22;12022;52.266;10.522;2023-03-21T17:07:22;12.70;99.90
1538;DHT22;12022;52.266;10.522;2023-03-21T17:09:49;12.70;99.90
1538;DHT22;12022;52.266;10.522;2023-03-21T17:12:23;12.60;99.90
1538;DHT22;12022;52.266;10.522;2023-03-21T17:14:50;12.60;99.90
1538;DHT22;12022;52.266;10.522;2023-03-21T17:17:17;12.50;99.90
1538;DHT22;12022;52.266;10.522;2023-03-21T17:19:44;12.50;99.90
1538;DHT22;12022;52.266;10.522;2023-03-21T17:22:12;12.50;99.90
1538;DHT22;12022;52.266;10.522;2023-03-21T17:24:40;12.50;99.90
1538;DHT22;12022;52.266;10.522;2023-03-21T17:27:10;12.40;99.90
1538;DHT22;12022;52.266;10.522;2023-03-21T17:29:43;12.50;99.90
1538;DHT22;12022;52.266;10.522;2023-03-21T17:32:10;12.40;99.90
1538;DHT22;12022;52.266;10.522;2023-03-21T17:34:37;12.40;99.90
1538;DHT22;12022;52.266;10.522;2023-03-21T17:37:04;12.40;99.90
1538;DHT22;12022;52.266;10.522;2023-03-21T17:39:33;12.40;99.90
1538;DHT22;12022;52.266;10.522;2023-03-21T17:42:00;12.40;99.90
1538;DHT22;12022;52.266;10.522;2023-03-21T17:44:27;12.40;99.90
1538;DHT22;12022;52.266;10.522;2023-03-21T17:46:54;12.40;99.90
1538;DHT22;12022;52.266;10.522;2023-03-21T17:49:21;12.40;99.90
1538;DHT22;12022;52.266;10.522;2023-03-21T17:51:48;12.40;99.90
1538;DHT22;12022;52.266;10.522;2023-03-21T17:54:16;12.30;99.90
1538;DHT22;12022;52.266;10.522;2023-03-21T17:56:42;12.30;99.90
1538;DHT22;12022;52.266;10.522;2023-03-21T17:59:13;12.30;99.90
1538;DHT22;12022;52.266;10.522;2023-03-21T18:01:40;12.30;99.90
1538;DHT22;12022;52.266;10.522;2023-03-21T18:04:08;12.30;99.90
1538;DHT22;12022;52.266;10.522;2023-03-21T18:06:38;12.30;99.90
1538;DHT22;12022;52.266;10.522;2023-03-21T18:09:46;12.30;99.90
1538;DHT22;12022;52.266;10.522;2023-03-21T18:12:30;12.30;99.90
1538;DHT22;12022;52.266;10.522;2023-03-21T18:15:34;12.30;99.90
1538;DHT22;12022;52.266;10.522;2023-03-21T18:18:40;12.30;99.90